createdAt,value
2018-08-11T00:00:10.741Z,989.66
2018-08-11T00:01:10.925Z,989.65
2018-08-11T00:02:11.111Z,989.64
2018-08-11T00:03:11.296Z,989.67
2018-08-11T00:04:11.474Z,989.68
2018-08-11T00:05:11.679Z,989.69
2018-08-11T00:06:11.867Z,989.74
2018-08-11T00:07:12.043Z,989.71
2018-08-11T00:08:12.227Z,989.71
2018-08-11T00:09:12.422Z,989.73
2018-08-11T00:10:12.597Z,989.68
2018-08-11T00:11:12.807Z,989.68
2018-08-11T00:12:12.970Z,989.65
2018-08-11T00:13:13.121Z,989.65
2018-08-11T00:14:13.314Z,989.61
2018-08-11T00:15:13.498Z,989.58
2018-08-11T00:16:13.687Z,989.58
2018-08-11T00:17:13.866Z,989.59
2018-08-11T00:18:14.046Z,989.63
2018-08-11T00:19:14.230Z,989.61
2018-08-11T00:20:14.416Z,989.61
2018-08-11T00:21:14.602Z,989.61
2018-08-11T00:22:14.789Z,989.59
2018-08-11T00:23:14.976Z,989.60
2018-08-11T00:24:15.158Z,989.61
2018-08-11T00:25:15.349Z,989.60
2018-08-11T00:26:15.540Z,989.60
2018-08-11T00:27:15.726Z,989.64
2018-08-11T00:28:15.911Z,989.61
2018-08-11T00:29:16.096Z,989.64
2018-08-11T00:30:16.285Z,989.61
2018-08-11T00:31:16.466Z,989.61
2018-08-11T00:32:16.642Z,989.63
2018-08-11T00:33:16.849Z,989.62
2018-08-11T00:34:17.020Z,989.59
2018-08-11T00:35:17.212Z,989.60
2018-08-11T00:36:17.421Z,989.59
2018-08-11T00:37:17.575Z,989.61
2018-08-11T00:38:17.776Z,989.59
2018-08-11T00:39:17.946Z,989.61
2018-08-11T00:40:18.141Z,989.61
2018-08-11T00:41:18.336Z,989.61
2018-08-11T00:42:18.507Z,989.63
2018-08-11T00:43:18.691Z,989.64
2018-08-11T00:44:18.879Z,989.58
2018-08-11T00:45:19.065Z,989.61
2018-08-11T00:46:19.249Z,989.60
2018-08-11T00:47:19.446Z,989.58
2018-08-11T00:48:19.646Z,989.59
2018-08-11T00:49:19.842Z,989.60
2018-08-11T00:50:20.034Z,989.56
2018-08-11T00:51:20.177Z,989.56
2018-08-11T00:52:20.366Z,989.56
2018-08-11T00:53:20.550Z,989.57
2018-08-11T00:54:20.741Z,989.53
2018-08-11T00:55:20.930Z,989.51
2018-08-11T00:56:21.112Z,989.49
2018-08-11T00:57:21.298Z,989.48
2018-08-11T00:58:21.483Z,989.50
2018-08-11T00:59:21.669Z,989.47
2018-08-11T01:00:21.858Z,989.52
2018-08-11T01:01:22.043Z,989.51
2018-08-11T01:02:22.285Z,989.54
2018-08-11T01:03:22.405Z,989.55
2018-08-11T01:04:22.592Z,989.54
2018-08-11T01:05:22.783Z,989.53
2018-08-11T01:06:22.970Z,989.51
2018-08-11T01:07:23.149Z,989.50
2018-08-11T01:08:23.335Z,989.48
2018-08-11T01:09:23.515Z,989.48
2018-08-11T01:10:23.708Z,989.48
2018-08-11T01:11:23.874Z,989.49
2018-08-11T01:12:24.066Z,989.52
2018-08-11T01:13:24.236Z,989.51
2018-08-11T01:14:24.421Z,989.48
2018-08-11T01:15:24.607Z,989.50
2018-08-11T01:16:24.783Z,989.45
2018-08-11T01:17:24.982Z,989.48
2018-08-11T01:18:25.184Z,989.42
2018-08-11T01:19:25.406Z,989.45
2018-08-11T01:20:25.526Z,989.47
2018-08-11T01:21:25.709Z,989.48
2018-08-11T01:22:25.896Z,989.47
2018-08-11T01:23:26.081Z,989.46
2018-08-11T01:24:26.292Z,989.48
2018-08-11T01:25:26.439Z,989.45
2018-08-11T01:26:27.149Z,989.47
2018-08-11T01:27:26.824Z,989.50
2018-08-11T01:28:27.004Z,989.48
2018-08-11T01:29:27.196Z,989.49
2018-08-11T01:30:27.372Z,989.49
2018-08-11T01:31:27.583Z,989.48
2018-08-11T01:32:27.737Z,989.47
2018-08-11T01:33:27.925Z,989.46
2018-08-11T01:34:28.112Z,989.48
2018-08-11T01:35:28.301Z,989.50
2018-08-11T01:36:28.481Z,989.47
2018-08-11T01:37:28.667Z,989.48
2018-08-11T01:38:28.891Z,989.45
2018-08-11T01:39:29.031Z,989.44
2018-08-11T01:40:29.216Z,989.40
2018-08-11T01:41:29.410Z,989.40
2018-08-11T01:42:29.590Z,989.40
2018-08-11T01:43:29.783Z,989.39
2018-08-11T01:44:29.976Z,989.40
2018-08-11T01:45:30.157Z,989.43
2018-08-11T01:46:30.355Z,989.44
2018-08-11T01:47:30.532Z,989.42
2018-08-11T01:48:30.716Z,989.40
2018-08-11T01:49:30.917Z,989.39
2018-08-11T01:50:31.114Z,989.39
2018-08-11T01:51:31.317Z,989.34
2018-08-11T01:52:31.458Z,989.33
2018-08-11T01:53:31.671Z,989.34
2018-08-11T01:54:31.833Z,989.30
2018-08-11T01:55:32.013Z,989.34
2018-08-11T01:56:32.203Z,989.33
2018-08-11T01:57:32.394Z,989.34
2018-08-11T01:58:32.576Z,989.36
2018-08-11T01:59:32.792Z,989.33
2018-08-11T02:00:32.998Z,989.34
2018-08-11T02:01:33.186Z,989.35
2018-08-11T02:02:33.378Z,989.33
2018-08-11T02:03:33.545Z,989.34
2018-08-11T02:04:33.723Z,989.35
2018-08-11T02:05:33.919Z,989.39
2018-08-11T02:06:34.104Z,989.38
2018-08-11T02:07:34.286Z,989.40
2018-08-11T02:08:34.467Z,989.39
2018-08-11T02:09:34.649Z,989.40
2018-08-11T02:10:34.838Z,989.37
2018-08-11T02:11:35.028Z,989.36
2018-08-11T02:12:35.219Z,989.33
2018-08-11T02:13:35.393Z,989.30
2018-08-11T02:14:35.576Z,989.32
2018-08-11T02:15:35.766Z,989.31
2018-08-11T02:16:35.956Z,989.30
2018-08-11T02:17:36.135Z,989.27
2018-08-11T02:18:36.323Z,989.25
2018-08-11T02:19:36.496Z,989.24
2018-08-11T02:20:36.687Z,989.20
2018-08-11T02:21:36.874Z,989.19
2018-08-11T02:22:37.052Z,989.19
2018-08-11T02:23:37.237Z,989.17
2018-08-11T02:24:37.457Z,989.19
2018-08-11T02:25:37.601Z,989.23
2018-08-11T02:26:37.780Z,989.21
2018-08-11T02:27:37.967Z,989.22
2018-08-11T02:28:38.150Z,989.20
2018-08-11T02:29:38.337Z,989.20
2018-08-11T02:30:38.525Z,989.20
2018-08-11T02:31:38.709Z,989.18
2018-08-11T02:32:38.899Z,989.12
2018-08-11T02:33:39.073Z,989.15
2018-08-11T02:34:39.290Z,989.14
2018-08-11T02:35:39.472Z,989.12
2018-08-11T02:36:39.661Z,989.13
2018-08-11T02:37:39.851Z,989.11
2018-08-11T02:38:40.028Z,989.12
2018-08-11T02:39:40.222Z,989.11
2018-08-11T02:40:40.408Z,989.09
2018-08-11T02:41:40.596Z,989.10
2018-08-11T02:42:40.800Z,989.07
2018-08-11T02:43:40.977Z,989.05
2018-08-11T02:44:41.154Z,989.05
2018-08-11T02:45:41.327Z,989.06
2018-08-11T02:46:41.521Z,989.04
2018-08-11T02:47:41.716Z,989.04
2018-08-11T02:48:41.887Z,989.03
2018-08-11T02:49:42.063Z,988.98
2018-08-11T02:50:42.237Z,989.00
2018-08-11T02:51:42.423Z,988.98
2018-08-11T02:52:42.600Z,988.96
2018-08-11T02:53:42.785Z,988.97
2018-08-11T02:54:42.963Z,988.98
2018-08-11T02:55:43.147Z,988.98
2018-08-11T02:56:43.361Z,988.94
2018-08-11T02:57:43.513Z,988.96
2018-08-11T02:58:43.703Z,988.95
2018-08-11T02:59:43.888Z,988.92
2018-08-11T03:00:44.058Z,988.98
2018-08-11T03:01:44.267Z,988.99
2018-08-11T03:02:44.447Z,988.95
2018-08-11T03:03:44.632Z,988.99
2018-08-11T03:04:44.843Z,989.01
2018-08-11T03:05:45.012Z,989.03
2018-08-11T03:06:45.180Z,989.06
2018-08-11T03:07:45.384Z,989.01
2018-08-11T03:08:45.571Z,988.99
2018-08-11T03:09:45.746Z,989.00
2018-08-11T03:10:45.934Z,989.05
2018-08-11T03:11:46.120Z,988.96
2018-08-11T03:12:46.325Z,988.96
2018-08-11T03:13:46.523Z,988.94
2018-08-11T03:14:46.710Z,988.90
2018-08-11T03:15:46.890Z,988.96
2018-08-11T03:16:47.089Z,988.97
2018-08-11T03:17:47.272Z,988.97
2018-08-11T03:18:47.447Z,988.92
2018-08-11T03:19:47.665Z,988.91
2018-08-11T03:20:47.844Z,988.92
2018-08-11T03:21:48.006Z,988.91
2018-08-11T03:22:48.192Z,988.94
2018-08-11T03:23:48.388Z,988.97
2018-08-11T03:24:48.565Z,988.96
2018-08-11T03:25:48.729Z,988.96
2018-08-11T03:26:48.911Z,988.95
2018-08-11T03:27:49.100Z,988.94
2018-08-11T03:28:49.283Z,988.92
2018-08-11T03:29:49.465Z,988.94
2018-08-11T03:30:49.654Z,988.97
2018-08-11T03:31:49.822Z,988.95
2018-08-11T03:32:50.016Z,989.00
2018-08-11T03:33:50.213Z,988.96
2018-08-11T03:34:50.370Z,988.93
2018-08-11T03:35:50.554Z,988.95
2018-08-11T03:36:50.749Z,988.95
2018-08-11T03:37:50.970Z,988.91
2018-08-11T03:38:51.157Z,989.02
2018-08-11T03:39:51.345Z,988.99
2018-08-11T03:40:51.539Z,989.03
2018-08-11T03:41:51.862Z,989.03
2018-08-11T03:42:51.898Z,989.03
2018-08-11T03:43:52.083Z,989.01
2018-08-11T03:44:52.260Z,989.04
2018-08-11T03:45:52.469Z,989.06
2018-08-11T03:46:52.645Z,989.02
2018-08-11T03:47:52.796Z,989.03
2018-08-11T03:48:52.985Z,989.04
2018-08-11T03:49:53.178Z,989.09
2018-08-11T03:50:53.359Z,989.08
2018-08-11T03:51:53.532Z,989.06
2018-08-11T03:52:53.717Z,989.04
2018-08-11T03:53:53.901Z,989.03
2018-08-11T03:54:54.083Z,989.06
2018-08-11T03:55:54.267Z,989.05
2018-08-11T03:56:54.480Z,989.06
2018-08-11T03:57:54.631Z,989.09
2018-08-11T03:58:54.810Z,989.09
2018-08-11T03:59:54.992Z,989.10
2018-08-11T04:00:55.179Z,989.13
2018-08-11T04:01:55.390Z,989.11
2018-08-11T04:02:55.555Z,989.13
2018-08-11T04:03:55.744Z,989.13
2018-08-11T04:04:55.922Z,989.10
2018-08-11T04:05:56.133Z,989.10
2018-08-11T04:06:56.290Z,989.11
2018-08-11T04:07:56.464Z,989.11
2018-08-11T04:08:56.667Z,989.11
2018-08-11T04:09:56.859Z,989.14
2018-08-11T04:10:57.018Z,989.14
2018-08-11T04:11:57.237Z,989.17
2018-08-11T04:12:57.391Z,989.13
2018-08-11T04:13:57.559Z,989.14
2018-08-11T04:14:57.764Z,989.15
2018-08-11T04:15:57.965Z,989.15
2018-08-11T04:16:58.109Z,989.14
2018-08-11T04:17:58.315Z,989.16
2018-08-11T04:18:58.514Z,989.13
2018-08-11T04:19:58.710Z,989.15
2018-08-11T04:20:58.869Z,989.13
2018-08-11T04:21:59.090Z,989.13
2018-08-11T04:22:59.255Z,989.08
2018-08-11T04:23:59.437Z,989.12
2018-08-11T04:24:59.644Z,989.16
2018-08-11T04:25:59.822Z,989.18
2018-08-11T04:26:59.989Z,989.17
2018-08-11T04:28:00.185Z,989.14
2018-08-11T04:29:00.378Z,989.15
2018-08-11T04:30:00.556Z,989.12
2018-08-11T04:31:00.707Z,989.13
2018-08-11T04:32:00.908Z,989.15
2018-08-11T04:33:01.079Z,989.16
2018-08-11T04:34:01.262Z,989.15
2018-08-11T04:35:01.443Z,989.13
2018-08-11T04:36:01.675Z,989.13
2018-08-11T04:37:01.829Z,989.11
2018-08-11T04:38:02.004Z,989.07
2018-08-11T04:39:02.199Z,989.11
2018-08-11T04:40:02.383Z,989.12
2018-08-11T04:41:02.605Z,989.12
2018-08-11T04:42:02.801Z,989.13
2018-08-11T04:43:02.945Z,989.10
2018-08-11T04:44:03.118Z,989.10
2018-08-11T04:45:03.317Z,989.17
2018-08-11T04:46:03.537Z,989.12
2018-08-11T04:47:03.850Z,989.16
2018-08-11T04:48:03.932Z,989.14
2018-08-11T04:49:04.116Z,989.15
2018-08-11T04:50:04.424Z,989.19
2018-08-11T04:51:04.464Z,989.19
2018-08-11T04:52:04.644Z,989.16
2018-08-11T04:53:04.836Z,989.16
2018-08-11T04:54:05.026Z,989.16
2018-08-11T04:55:05.219Z,989.20
2018-08-11T04:56:05.404Z,989.21
2018-08-11T04:57:05.588Z,989.22
2018-08-11T04:58:05.776Z,989.23
2018-08-11T04:59:05.947Z,989.23
2018-08-11T05:00:06.128Z,989.25
2018-08-11T05:01:06.342Z,989.27
2018-08-11T05:02:06.541Z,989.28
2018-08-11T05:03:06.724Z,989.30
2018-08-11T05:04:06.910Z,989.30
2018-08-11T05:05:07.097Z,989.35
2018-08-11T05:06:07.278Z,989.32
2018-08-11T05:07:07.465Z,989.37
2018-08-11T05:08:07.660Z,989.33
2018-08-11T05:09:07.861Z,989.31
2018-08-11T05:10:08.026Z,989.32
2018-08-11T05:11:08.205Z,989.36
2018-08-11T05:12:08.403Z,989.31
2018-08-11T05:13:08.588Z,989.32
2018-08-11T05:14:08.774Z,989.32
2018-08-11T05:15:08.965Z,989.32
2018-08-11T05:16:09.149Z,989.36
2018-08-11T05:17:09.327Z,989.33
2018-08-11T05:18:09.519Z,989.40
2018-08-11T05:19:09.708Z,989.36
2018-08-11T05:20:09.893Z,989.42
2018-08-11T05:21:10.078Z,989.40
2018-08-11T05:22:10.253Z,989.40
2018-08-11T05:23:10.436Z,989.39
2018-08-11T05:24:10.623Z,989.42
2018-08-11T05:25:10.799Z,989.44
2018-08-11T05:26:11.032Z,989.45
2018-08-11T05:27:11.190Z,989.45
2018-08-11T05:28:11.375Z,989.45
2018-08-11T05:29:11.560Z,989.46
2018-08-11T05:30:11.751Z,989.43
2018-08-11T05:31:11.930Z,989.42
2018-08-11T05:32:12.151Z,989.43
2018-08-11T05:33:12.343Z,989.48
2018-08-11T05:34:12.503Z,989.44
2018-08-11T05:35:12.677Z,989.50
2018-08-11T05:36:12.893Z,989.55
2018-08-11T05:37:13.037Z,989.51
2018-08-11T05:38:13.209Z,989.52
2018-08-11T05:39:13.399Z,989.53
2018-08-11T05:40:13.604Z,989.54
2018-08-11T05:41:13.772Z,989.61
2018-08-11T05:42:13.944Z,989.57
2018-08-11T05:43:14.123Z,989.58
2018-08-11T05:44:14.308Z,989.53
2018-08-11T05:45:14.498Z,989.57
2018-08-11T05:46:14.673Z,989.64
2018-08-11T05:47:14.858Z,989.62
2018-08-11T05:48:15.037Z,989.68
2018-08-11T05:49:15.232Z,989.69
2018-08-11T05:50:15.415Z,989.66
2018-08-11T05:51:15.600Z,989.70
2018-08-11T05:52:15.786Z,989.71
2018-08-11T05:53:15.969Z,989.70
2018-08-11T05:54:16.151Z,989.83
2018-08-11T05:55:16.395Z,990.00
2018-08-11T05:56:16.536Z,989.80
2018-08-11T05:57:16.700Z,989.84
2018-08-11T05:58:16.889Z,990.02
2018-08-11T05:59:17.069Z,989.82
2018-08-11T06:00:17.275Z,989.82
2018-08-11T06:01:17.457Z,989.82
2018-08-11T06:02:17.622Z,989.82
2018-08-11T06:03:17.809Z,989.82
2018-08-11T06:04:18.022Z,989.86
2018-08-11T06:05:18.182Z,989.83
2018-08-11T06:06:18.377Z,989.89
2018-08-11T06:07:18.553Z,989.87
2018-08-11T06:08:18.738Z,989.91
2018-08-11T06:09:18.923Z,989.87
2018-08-11T06:10:19.111Z,989.88
2018-08-11T06:11:19.299Z,989.90
2018-08-11T06:12:19.487Z,989.91
2018-08-11T06:13:19.665Z,989.92
2018-08-11T06:14:19.845Z,989.93
2018-08-11T06:15:20.041Z,990.31
2018-08-11T06:16:20.251Z,989.98
2018-08-11T06:17:20.434Z,989.98
2018-08-11T06:18:20.657Z,990.07
2018-08-11T06:19:20.802Z,990.14
2018-08-11T06:20:21.013Z,990.14
2018-08-11T06:21:21.201Z,990.12
2018-08-11T06:22:21.377Z,990.33
2018-08-11T06:23:21.565Z,990.48
2018-08-11T06:24:21.752Z,990.32
2018-08-11T06:25:21.916Z,991.00
2018-08-11T06:26:22.112Z,990.82
2018-08-11T06:27:22.293Z,990.36
2018-08-11T06:28:22.485Z,991.00
2018-08-11T06:29:22.670Z,990.87
2018-08-11T06:30:22.861Z,990.51
2018-08-11T06:31:23.067Z,990.51
2018-08-11T06:32:23.237Z,990.52
2018-08-11T06:33:23.429Z,990.47
2018-08-11T06:34:23.623Z,990.42
2018-08-11T06:35:23.812Z,990.37
2018-08-11T06:36:24.027Z,990.41
2018-08-11T06:37:24.190Z,990.35
2018-08-11T06:38:24.402Z,990.32
2018-08-11T06:39:24.571Z,990.33
2018-08-11T06:40:24.810Z,990.29
2018-08-11T06:41:24.945Z,990.22
2018-08-11T06:42:25.132Z,990.19
2018-08-11T06:43:25.326Z,990.22
2018-08-11T06:44:25.523Z,990.22
2018-08-11T06:45:25.690Z,990.26
2018-08-11T06:46:25.890Z,990.23
2018-08-11T06:47:26.089Z,990.27
2018-08-11T06:48:26.273Z,991.15
2018-08-11T06:49:26.468Z,991.22
2018-08-11T06:50:26.656Z,990.40
2018-08-11T06:51:26.844Z,991.39
2018-08-11T06:52:27.055Z,991.39
2018-08-11T06:53:27.232Z,990.55
2018-08-11T06:54:27.426Z,990.29
2018-08-11T06:55:27.682Z,990.31
2018-08-11T06:56:27.834Z,990.36
2018-08-11T06:57:27.992Z,990.43
2018-08-11T06:58:28.186Z,990.40
2018-08-11T06:59:28.372Z,990.38
2018-08-11T07:00:28.567Z,990.31
2018-08-11T07:01:28.745Z,990.26
2018-08-11T07:02:28.936Z,990.18
2018-08-11T07:03:29.130Z,990.18
2018-08-11T07:04:29.328Z,990.20
2018-08-11T07:05:29.513Z,990.25
2018-08-11T07:06:29.740Z,990.31
2018-08-11T07:07:29.874Z,990.31
2018-08-11T07:08:30.061Z,990.37
2018-08-11T07:09:30.266Z,990.38
2018-08-11T07:10:30.454Z,990.44
2018-08-11T07:11:30.640Z,990.47
2018-08-11T07:12:30.852Z,990.45
2018-08-11T07:13:31.022Z,990.43
2018-08-11T07:14:31.211Z,990.38
2018-08-11T07:15:31.395Z,990.40
2018-08-11T07:16:31.600Z,990.39
2018-08-11T07:17:31.783Z,990.36
2018-08-11T07:18:31.967Z,990.46
2018-08-11T07:19:32.163Z,990.36
2018-08-11T07:20:32.356Z,990.59
2018-08-11T07:21:32.549Z,990.55
2018-08-11T07:22:32.749Z,992.81
2018-08-11T07:23:32.925Z,993.16
2018-08-11T07:24:33.113Z,992.42
2018-08-11T07:25:33.304Z,993.39
2018-08-11T07:26:33.529Z,991.38
2018-08-11T07:27:33.688Z,993.09
2018-08-11T07:28:33.901Z,991.07
2018-08-11T07:29:34.061Z,994.58
2018-08-11T07:30:34.249Z,994.93
2018-08-11T07:31:34.449Z,995.27
2018-08-11T07:32:34.632Z,995.47
2018-08-11T07:33:34.842Z,995.96
2018-08-11T07:34:35.101Z,996.61
2018-08-11T07:35:35.220Z,997.10
2018-08-11T07:36:35.466Z,997.42
2018-08-11T07:37:35.595Z,997.44
2018-08-11T07:38:35.788Z,997.58
2018-08-11T07:39:36.026Z,997.69
2018-08-11T07:40:36.187Z,996.91
2018-08-11T07:41:36.363Z,991.93
2018-08-11T07:42:36.554Z,993.68
2018-08-11T07:43:36.755Z,991.25
2018-08-11T07:44:36.952Z,991.55
2018-08-11T07:45:37.190Z,992.05
2018-08-11T07:46:37.383Z,992.79
2018-08-11T07:47:37.654Z,992.89
2018-08-11T07:48:37.779Z,992.27
2018-08-11T07:49:37.993Z,992.13
2018-08-11T07:50:38.211Z,991.54
2018-08-11T07:51:38.402Z,991.28
2018-08-11T07:52:38.598Z,991.16
2018-08-11T07:53:38.792Z,991.39
2018-08-11T07:54:38.969Z,991.18
2018-08-11T07:55:39.200Z,991.46
2018-08-11T07:56:39.371Z,991.31
2018-08-11T07:57:39.564Z,991.23
2018-08-11T07:58:39.758Z,991.20
2018-08-11T07:59:39.949Z,991.16
2018-08-11T08:00:40.188Z,991.09
2018-08-11T08:01:40.370Z,991.04
2018-08-11T08:02:40.520Z,991.07
2018-08-11T08:03:40.713Z,991.00
2018-08-11T08:04:40.912Z,991.02
2018-08-11T08:05:41.105Z,990.96
2018-08-11T08:06:41.296Z,991.02
2018-08-11T08:07:41.494Z,991.00
2018-08-11T08:08:41.675Z,990.99
2018-08-11T08:09:41.855Z,991.01
2018-08-11T08:10:42.055Z,991.20
2018-08-11T08:11:42.238Z,991.16
2018-08-11T08:12:42.430Z,991.20
2018-08-11T08:13:42.666Z,991.11
2018-08-11T08:14:42.808Z,991.12
2018-08-11T08:15:43.001Z,991.10
2018-08-11T08:16:43.207Z,991.01
2018-08-11T08:17:43.412Z,991.04
2018-08-11T08:18:43.579Z,991.16
2018-08-11T08:19:43.789Z,991.14
2018-08-11T08:20:44.003Z,991.10
2018-08-11T08:21:44.207Z,991.09
2018-08-11T08:22:44.406Z,990.92
2018-08-11T08:23:44.598Z,991.05
2018-08-11T08:24:44.793Z,991.09
2018-08-11T08:25:45.013Z,991.03
2018-08-11T08:26:45.235Z,990.86
2018-08-11T08:27:45.376Z,990.95
2018-08-11T08:28:45.574Z,990.85
2018-08-11T08:29:45.787Z,990.95
2018-08-11T08:30:45.938Z,990.94
2018-08-11T08:31:46.140Z,991.05
2018-08-11T08:32:46.336Z,991.06
2018-08-11T08:33:46.568Z,991.01
2018-08-11T08:34:46.758Z,990.86
2018-08-11T08:35:46.970Z,990.88
2018-08-11T08:36:47.132Z,990.90
2018-08-11T08:37:47.323Z,990.89
2018-08-11T08:38:47.517Z,990.82
2018-08-11T08:39:47.713Z,990.90
2018-08-11T08:40:47.905Z,990.90
2018-08-11T08:41:48.095Z,990.87
2018-08-11T08:42:48.291Z,990.91
2018-08-11T08:43:48.482Z,990.92
2018-08-11T08:44:48.666Z,990.86
2018-08-11T08:45:48.860Z,990.87
2018-08-11T08:46:49.052Z,990.81
2018-08-11T08:47:49.251Z,990.88
2018-08-11T08:48:49.485Z,990.86
2018-08-11T08:49:49.632Z,990.83
2018-08-11T08:50:49.839Z,990.82
2018-08-11T08:51:50.022Z,990.93
2018-08-11T08:52:50.196Z,990.91
2018-08-11T08:53:50.382Z,990.97
2018-08-11T08:54:50.580Z,990.98
2018-08-11T08:55:50.773Z,991.02
2018-08-11T08:56:50.977Z,990.97
2018-08-11T08:57:51.188Z,990.88
2018-08-11T08:58:51.331Z,991.00
2018-08-11T08:59:51.524Z,991.01
2018-08-11T09:00:51.733Z,990.96
2018-08-11T09:01:51.942Z,991.01
2018-08-11T09:02:52.083Z,990.94
2018-08-11T09:03:52.281Z,991.03
2018-08-11T09:04:52.487Z,991.02
2018-08-11T09:05:52.650Z,991.05
2018-08-11T09:06:52.843Z,991.07
2018-08-11T09:07:53.056Z,990.91
2018-08-11T09:08:53.223Z,990.91
2018-08-11T09:09:53.420Z,990.98
2018-08-11T09:10:53.602Z,990.99
2018-08-11T09:11:53.867Z,990.88
2018-08-11T09:12:54.039Z,990.82
2018-08-11T09:13:54.424Z,990.87
2018-08-11T09:14:54.364Z,990.86
2018-08-11T09:15:54.563Z,990.83
2018-08-11T09:16:54.742Z,990.93
2018-08-11T09:17:54.930Z,990.85
2018-08-11T09:18:55.140Z,990.85
2018-08-11T09:19:55.335Z,990.96
2018-08-11T09:20:55.524Z,990.96
2018-08-11T09:21:55.713Z,991.02
2018-08-11T09:22:55.907Z,990.97
2018-08-11T09:23:56.100Z,991.00
2018-08-11T09:24:56.292Z,990.90
2018-08-11T09:25:56.484Z,990.85
2018-08-11T09:26:56.672Z,990.85
2018-08-11T09:27:56.865Z,990.88
2018-08-11T09:28:57.082Z,990.92
2018-08-11T09:29:57.281Z,990.87
2018-08-11T09:30:57.473Z,990.85
2018-08-11T09:31:57.678Z,990.91
2018-08-11T09:32:57.850Z,990.89
2018-08-11T09:33:58.029Z,990.86
2018-08-11T09:34:58.233Z,990.88
2018-08-11T09:35:59.299Z,990.82
2018-08-11T09:36:58.611Z,990.80
2018-08-11T09:37:58.809Z,990.78
2018-08-11T09:38:58.991Z,990.81
2018-08-11T09:39:59.182Z,990.84
2018-08-11T09:40:59.563Z,990.84
2018-08-11T09:42:00.192Z,990.92
2018-08-11T09:42:59.780Z,990.87
2018-08-11T09:43:59.971Z,990.87
2018-08-11T09:45:00.164Z,990.87
2018-08-11T09:46:00.381Z,990.81
2018-08-11T09:47:00.559Z,990.84
2018-08-11T09:48:00.725Z,990.81
2018-08-11T09:49:00.891Z,990.82
2018-08-11T09:50:01.079Z,990.81
2018-08-11T09:51:01.260Z,990.72
2018-08-11T09:52:01.448Z,990.78
2018-08-11T09:53:01.642Z,990.73
2018-08-11T09:54:01.823Z,990.82
2018-08-11T09:55:02.029Z,990.80
2018-08-11T09:56:02.218Z,990.83
2018-08-11T09:57:02.382Z,990.81
2018-08-11T09:58:02.569Z,990.77
2018-08-11T09:59:02.760Z,990.72
2018-08-11T10:00:02.929Z,990.77
2018-08-11T10:01:03.121Z,990.65
2018-08-11T10:02:03.310Z,990.73
2018-08-11T10:03:03.512Z,990.70
2018-08-11T10:04:03.696Z,990.62
2018-08-11T10:05:03.906Z,990.68
2018-08-11T10:06:04.079Z,990.74
2018-08-11T10:07:04.267Z,990.70
2018-08-11T10:08:04.484Z,990.63
2018-08-11T10:09:04.654Z,990.64
2018-08-11T10:10:04.842Z,990.56
2018-08-11T10:11:05.031Z,990.53
2018-08-11T10:12:05.234Z,990.60
2018-08-11T10:13:05.408Z,990.56
2018-08-11T10:14:05.612Z,990.54
2018-08-11T10:15:05.785Z,990.49
2018-08-11T10:16:06.006Z,990.48
2018-08-11T10:17:06.181Z,990.55
2018-08-11T10:18:06.373Z,990.47
2018-08-11T10:19:06.551Z,990.50
2018-08-11T10:20:06.765Z,990.48
2018-08-11T10:21:06.931Z,990.49
2018-08-11T10:22:07.131Z,990.47
2018-08-11T10:23:07.322Z,990.45
2018-08-11T10:24:07.516Z,990.48
2018-08-11T10:25:07.717Z,990.43
2018-08-11T10:26:07.896Z,990.43
2018-08-11T10:27:08.089Z,990.42
2018-08-11T10:28:08.281Z,990.42
2018-08-11T10:29:08.502Z,990.45
2018-08-11T10:30:08.687Z,990.45
2018-08-11T10:31:08.865Z,990.43
2018-08-11T10:32:09.056Z,990.38
2018-08-11T10:33:09.247Z,990.40
2018-08-11T10:34:09.429Z,990.42
2018-08-11T10:35:09.617Z,990.40
2018-08-11T10:36:09.811Z,990.41
2018-08-11T10:37:09.997Z,990.38
2018-08-11T10:38:10.321Z,990.43
2018-08-11T10:39:10.360Z,990.39
2018-08-11T10:40:11.284Z,990.41
2018-08-11T10:41:10.782Z,990.44
2018-08-11T10:42:10.974Z,990.52
2018-08-11T10:43:11.166Z,990.41
2018-08-11T10:44:11.348Z,990.47
2018-08-11T10:45:11.562Z,990.39
2018-08-11T10:46:11.755Z,990.44
2018-08-11T10:47:12.034Z,990.33
2018-08-11T10:48:12.123Z,990.41
2018-08-11T10:49:12.313Z,990.25
2018-08-11T10:50:12.518Z,990.23
2018-08-11T10:51:12.683Z,990.30
2018-08-11T10:52:12.875Z,990.35
2018-08-11T10:53:13.064Z,990.30
2018-08-11T10:54:13.249Z,990.38
2018-08-11T10:55:13.458Z,990.36
2018-08-11T10:56:13.634Z,990.30
2018-08-11T10:57:13.819Z,990.27
2018-08-11T10:58:14.011Z,990.22
2018-08-11T10:59:14.204Z,990.32
2018-08-11T11:00:14.381Z,990.23
2018-08-11T11:01:14.575Z,990.21
2018-08-11T11:02:14.757Z,990.19
2018-08-11T11:03:14.955Z,990.21
2018-08-11T11:04:15.119Z,990.20
2018-08-11T11:05:15.308Z,990.12
2018-08-11T11:06:15.498Z,990.21
2018-08-11T11:07:15.676Z,990.16
2018-08-11T11:08:15.873Z,990.18
2018-08-11T11:09:16.065Z,990.13
2018-08-11T11:10:16.278Z,990.12
2018-08-11T11:11:16.409Z,990.13
2018-08-11T11:12:16.602Z,990.12
2018-08-11T11:13:16.804Z,990.22
2018-08-11T11:14:17.026Z,990.11
2018-08-11T11:15:17.159Z,990.22
2018-08-11T11:16:17.375Z,990.17
2018-08-11T11:17:17.563Z,990.12
2018-08-11T11:18:17.749Z,990.14
2018-08-11T11:19:17.935Z,990.17
2018-08-11T11:20:18.130Z,990.17
2018-08-11T11:21:18.327Z,990.17
2018-08-11T11:22:18.518Z,990.20
2018-08-11T11:23:18.699Z,990.23
2018-08-11T11:24:18.897Z,990.22
2018-08-11T11:25:19.083Z,990.24
2018-08-11T11:26:19.260Z,990.25
2018-08-11T11:27:19.450Z,990.27
2018-08-11T11:28:19.645Z,990.25
2018-08-11T11:29:19.839Z,990.25
2018-08-11T11:30:20.027Z,990.25
2018-08-11T11:31:20.219Z,990.21
2018-08-11T11:32:20.405Z,990.16
2018-08-11T11:33:20.613Z,990.24
2018-08-11T11:34:20.781Z,990.22
2018-08-11T11:35:20.977Z,990.22
2018-08-11T11:36:21.159Z,990.14
2018-08-11T11:37:21.424Z,990.16
2018-08-11T11:38:21.563Z,990.24
2018-08-11T11:39:21.753Z,990.28
2018-08-11T11:40:21.917Z,990.28
2018-08-11T11:41:22.135Z,990.27
2018-08-11T11:42:22.305Z,990.25
2018-08-11T11:43:22.522Z,990.30
2018-08-11T11:44:22.684Z,990.22
2018-08-11T11:45:22.898Z,990.28
2018-08-11T11:46:23.044Z,990.20
2018-08-11T11:47:23.233Z,990.23
2018-08-11T11:48:23.416Z,990.23
2018-08-11T11:49:23.616Z,990.25
2018-08-11T11:50:23.812Z,990.26
2018-08-11T11:51:24.008Z,990.24
2018-08-11T11:52:24.166Z,990.26
2018-08-11T11:53:24.345Z,990.26
2018-08-11T11:54:24.564Z,990.27
2018-08-11T11:55:24.719Z,990.31
2018-08-11T11:56:24.916Z,990.20
2018-08-11T11:57:25.106Z,990.23
2018-08-11T11:58:25.321Z,990.33
2018-08-11T11:59:25.509Z,990.22
2018-08-11T12:00:25.681Z,990.28
2018-08-11T12:01:25.873Z,990.16
2018-08-11T12:02:26.067Z,990.27
2018-08-11T12:03:26.252Z,990.28
2018-08-11T12:04:26.492Z,990.31
2018-08-11T12:05:26.625Z,990.36
2018-08-11T12:06:26.827Z,990.30
2018-08-11T12:07:27.009Z,990.34
2018-08-11T12:08:27.180Z,990.30
2018-08-11T12:09:27.369Z,990.27
2018-08-11T12:10:27.560Z,990.32
2018-08-11T12:11:27.753Z,990.36
2018-08-11T12:12:27.935Z,990.37
2018-08-11T12:13:28.132Z,990.33
2018-08-11T12:14:28.354Z,990.38
2018-08-11T12:15:28.498Z,990.39
2018-08-11T12:16:28.689Z,990.33
2018-08-11T12:17:28.884Z,990.39
2018-08-11T12:18:29.065Z,990.40
2018-08-11T12:19:29.382Z,990.38
2018-08-11T12:20:29.470Z,990.36
2018-08-11T12:21:29.660Z,990.34
2018-08-11T12:22:29.847Z,990.28
2018-08-11T12:23:30.020Z,990.31
2018-08-11T12:24:30.217Z,990.29
2018-08-11T12:25:30.428Z,990.36
2018-08-11T12:26:30.598Z,990.25
2018-08-11T12:27:30.790Z,990.30
2018-08-11T12:28:30.971Z,990.30
2018-08-11T12:29:31.188Z,990.27
2018-08-11T12:30:31.359Z,990.26